Aviation Digital Data Service (ADDS)

Output produced by METARs form (1450 UTC 22 April 2019)
found at http://www.aviationweather.gov/metar/data/
 
METAR text: LFBO 221430Z AUTO 12017KT 090V150 CAVOK 20/06 Q1000 BECMG 10016G26KT
Conditions at: LFBO (TOULOUSE/BLAGNAC, FR) observed 1430 UTC 22 April 2019
Temperature: 20.0°C (68°F)
Dewpoint: 6.0°C (43°F) [RH = 40%]
Pressure (altimeter): 29.53 inches Hg (1000.0 mb)
Winds: from the ESE (120 degrees) at 20 MPH (17 knots; 8.7 m/s)
Visibility: 6 or more miles (10+ km)
Ceiling: ceiling and visibility are OK
Clouds: unknown
Weather: no significant weather observed at this time

METAR text: LFBO 221400Z AUTO 12015KT CAVOK 20/07 Q1000 BECMG 10016G26KT
Conditions at: LFBO (TOULOUSE/BLAGNAC, FR) observed 1400 UTC 22 April 2019
Temperature: 20.0°C (68°F)
Dewpoint: 7.0°C (45°F) [RH = 43%]
Pressure (altimeter): 29.53 inches Hg (1000.0 mb)
Winds: from the ESE (120 degrees) at 17 MPH (15 knots; 7.7 m/s)
Visibility: 6 or more miles (10+ km)
Ceiling: ceiling and visibility are OK
Clouds: unknown
Weather: no significant weather observed at this time

METAR text: LFBO 221330Z AUTO 13016KT 090V150 CAVOK 19/08 Q1001 BECMG 10016G26KT
Conditions at: LFBO (TOULOUSE/BLAGNAC, FR) observed 1330 UTC 22 April 2019
Temperature: 19.0°C (66°F)
Dewpoint: 8.0°C (46°F) [RH = 49%]
Pressure (altimeter): 29.56 inches Hg (1001.0 mb)
Winds: from the SE (130 degrees) at 18 MPH (16 knots; 8.2 m/s)
Visibility: 6 or more miles (10+ km)
Ceiling: ceiling and visibility are OK
Clouds: unknown
Weather: no significant weather observed at this time

METAR text: LFBO 221300Z AUTO 13015KT 100V160 CAVOK 19/08 Q1001 BECMG 10016G26KT
Conditions at: LFBO (TOULOUSE/BLAGNAC, FR) observed 1300 UTC 22 April 2019
Temperature: 19.0°C (66°F)
Dewpoint: 8.0°C (46°F) [RH = 49%]
Pressure (altimeter): 29.56 inches Hg (1001.0 mb)
Winds: from the SE (130 degrees) at 17 MPH (15 knots; 7.7 m/s)
Visibility: 6 or more miles (10+ km)
Ceiling: ceiling and visibility are OK
Clouds: unknown
Weather: no significant weather observed at this time

METAR text: LFBO 221230Z AUTO 13016KT CAVOK 18/07 Q1002 BECMG 10016G26KT
Conditions at: LFBO (TOULOUSE/BLAGNAC, FR) observed 1230 UTC 22 April 2019
Temperature: 18.0°C (64°F)
Dewpoint: 7.0°C (45°F) [RH = 49%]
Pressure (altimeter): 29.59 inches Hg (1002.0 mb)
Winds: from the SE (130 degrees) at 18 MPH (16 knots; 8.2 m/s)
Visibility: 6 or more miles (10+ km)
Ceiling: ceiling and visibility are OK
Clouds: unknown
Weather: no significant weather observed at this time

METAR text: LFBO 221200Z AUTO 12013KT 090V150 CAVOK 17/07 Q1002 BECMG 10016G26KT
Conditions at: LFBO (TOULOUSE/BLAGNAC, FR) observed 1200 UTC 22 April 2019
Temperature: 17.0°C (63°F)
Dewpoint: 7.0°C (45°F) [RH = 52%]
Pressure (altimeter): 29.59 inches Hg (1002.0 mb)
Winds: from the ESE (120 degrees) at 15 MPH (13 knots; 6.7 m/s)
Visibility: 6 or more miles (10+ km)
Ceiling: ceiling and visibility are OK
Clouds: unknown
Weather: no significant weather observed at this time

METAR text: LFBO 221130Z AUTO 13017KT CAVOK 17/07 Q1002 BECMG 10016G26KT
Conditions at: LFBO (TOULOUSE/BLAGNAC, FR) observed 1130 UTC 22 April 2019
Temperature: 17.0°C (63°F)
Dewpoint: 7.0°C (45°F) [RH = 52%]
Pressure (altimeter): 29.59 inches Hg (1002.0 mb)
Winds: from the SE (130 degrees) at 20 MPH (17 knots; 8.7 m/s)
Visibility: 6 or more miles (10+ km)
Ceiling: ceiling and visibility are OK
Clouds: unknown
Weather: no significant weather observed at this time

METAR text: LFBO 221100Z AUTO 13016KT 9999 FEW011 18/07 Q1003 TEMPO 13020G30KT
Conditions at: LFBO (TOULOUSE/BLAGNAC, FR) observed 1100 UTC 22 April 2019
Temperature: 18.0°C (64°F)
Dewpoint: 7.0°C (45°F) [RH = 49%]
Pressure (altimeter): 29.62 inches Hg (1003.0 mb)
Winds: from the SE (130 degrees) at 18 MPH (16 knots; 8.2 m/s)
Visibility: 6 or more miles (10+ km)
Ceiling: at least 12,000 feet AGL
Clouds: few clouds at 1100 feet AGL
Weather: no significant weather observed at this time

METAR text: LFBO 221030Z AUTO 11018KT CAVOK 18/07 Q1003 TEMPO 13020G30KT
Conditions at: LFBO (TOULOUSE/BLAGNAC, FR) observed 1030 UTC 22 April 2019
Temperature: 18.0°C (64°F)
Dewpoint: 7.0°C (45°F) [RH = 49%]
Pressure (altimeter): 29.62 inches Hg (1003.0 mb)
Winds: from the ESE (110 degrees) at 21 MPH (18 knots; 9.3 m/s)
Visibility: 6 or more miles (10+ km)
Ceiling: ceiling and visibility are OK
Clouds: unknown
Weather: no significant weather observed at this time

METAR text: LFBO 221000Z AUTO 12020G30KT 070V150 CAVOK 18/07 Q1003 NOSIG
Conditions at: LFBO (TOULOUSE/BLAGNAC, FR) observed 1000 UTC 22 April 2019
Temperature: 18.0°C (64°F)
Dewpoint: 7.0°C (45°F) [RH = 49%]
Pressure (altimeter): 29.62 inches Hg (1003.0 mb)
Winds: from the ESE (120 degrees) at 23 MPH (20 knots; 10.3 m/s)
gusting to 34 MPH (30 knots; 15.4 m/s)
Visibility: 6 or more miles (10+ km)
Ceiling: ceiling and visibility are OK
Clouds: unknown
Weather: no significant weather observed at this time

METAR text: LFBO 220930Z AUTO 12012KT 070V150 CAVOK 18/08 Q1004 TEMPO 13020G30KT
Conditions at: LFBO (TOULOUSE/BLAGNAC, FR) observed 0930 UTC 22 April 2019
Temperature: 18.0°C (64°F)
Dewpoint: 8.0°C (46°F) [RH = 52%]
Pressure (altimeter): 29.65 inches Hg (1004.0 mb)
Winds: from the ESE (120 degrees) at 14 MPH (12 knots; 6.2 m/s)
Visibility: 6 or more miles (10+ km)
Ceiling: ceiling and visibility are OK
Clouds: unknown
Weather: no significant weather observed at this time

METAR text: LFBO 220900Z AUTO 10010KT 070V130 CAVOK 18/07 Q1004 TEMPO 13020G30KT
Conditions at: LFBO (TOULOUSE/BLAGNAC, FR) observed 0900 UTC 22 April 2019
Temperature: 18.0°C (64°F)
Dewpoint: 7.0°C (45°F) [RH = 49%]
Pressure (altimeter): 29.65 inches Hg (1004.0 mb)
Winds: from the E (100 degrees) at 12 MPH (10 knots; 5.1 m/s)
Visibility: 6 or more miles (10+ km)
Ceiling: ceiling and visibility are OK
Clouds: unknown
Weather: no significant weather observed at this time

METAR text: LFBO 220830Z AUTO 10006KT 070V130 CAVOK 16/08 Q1004 TEMPO 13020G30KT
Conditions at: LFBO (TOULOUSE/BLAGNAC, FR) observed 0830 UTC 22 April 2019
Temperature: 16.0°C (61°F)
Dewpoint: 8.0°C (46°F) [RH = 59%]
Pressure (altimeter): 29.65 inches Hg (1004.0 mb)
Winds: from the E (100 degrees) at 7 MPH (6 knots; 3.1 m/s)
Visibility: 6 or more miles (10+ km)
Ceiling: ceiling and visibility are OK
Clouds: unknown
Weather: no significant weather observed at this time

METAR text: LFBO 220800Z AUTO 08006KT CAVOK 15/08 Q1004 NOSIG
Conditions at: LFBO (TOULOUSE/BLAGNAC, FR) observed 0800 UTC 22 April 2019
Temperature: 15.0°C (59°F)
Dewpoint: 8.0°C (46°F) [RH = 63%]
Pressure (altimeter): 29.65 inches Hg (1004.0 mb)
Winds: from the E (80 degrees) at 7 MPH (6 knots; 3.1 m/s)
Visibility: 6 or more miles (10+ km)
Ceiling: ceiling and visibility are OK
Clouds: unknown
Weather: no significant weather observed at this time

METAR text: LFBO 220730Z AUTO 07006KT CAVOK 13/07 Q1004 BECMG 13014KT
Conditions at: LFBO (TOULOUSE/BLAGNAC, FR) observed 0730 UTC 22 April 2019
Temperature: 13.0°C (55°F)
Dewpoint: 7.0°C (45°F) [RH = 67%]
Pressure (altimeter): 29.65 inches Hg (1004.0 mb)
Winds: from the ENE (70 degrees) at 7 MPH (6 knots; 3.1 m/s)
Visibility: 6 or more miles (10+ km)
Ceiling: ceiling and visibility are OK
Clouds: unknown
Weather: no significant weather observed at this time

METAR text: LFBO 220700Z AUTO 07004KT CAVOK 12/07 Q1004 BECMG 13014KT
Conditions at: LFBO (TOULOUSE/BLAGNAC, FR) observed 0700 UTC 22 April 2019
Temperature: 12.0°C (54°F)
Dewpoint: 7.0°C (45°F) [RH = 71%]
Pressure (altimeter): 29.65 inches Hg (1004.0 mb)
Winds: from the ENE (70 degrees) at 5 MPH (4 knots; 2.1 m/s)
Visibility: 6 or more miles (10+ km)
Ceiling: ceiling and visibility are OK
Clouds: unknown
Weather: no significant weather observed at this time

METAR text: LFBO 220630Z AUTO 08004KT CAVOK 12/08 Q1005 BECMG 13014KT
Conditions at: LFBO (TOULOUSE/BLAGNAC, FR) observed 0630 UTC 22 April 2019
Temperature: 12.0°C (54°F)
Dewpoint: 8.0°C (46°F) [RH = 76%]
Pressure (altimeter): 29.68 inches Hg (1005.0 mb)
Winds: from the E (80 degrees) at 5 MPH (4 knots; 2.1 m/s)
Visibility: 6 or more miles (10+ km)
Ceiling: ceiling and visibility are OK
Clouds: unknown
Weather: no significant weather observed at this time

METAR text: LFBO 220600Z AUTO 07005KT CAVOK 12/07 Q1005 NOSIG
Conditions at: LFBO (TOULOUSE/BLAGNAC, FR) observed 0600 UTC 22 April 2019
Temperature: 12.0°C (54°F)
Dewpoint: 7.0°C (45°F) [RH = 71%]
Pressure (altimeter): 29.68 inches Hg (1005.0 mb)
Winds: from the ENE (70 degrees) at 6 MPH (5 knots; 2.6 m/s)
Visibility: 6 or more miles (10+ km)
Ceiling: ceiling and visibility are OK
Clouds: unknown
Weather: no significant weather observed at this time

METAR text: LFBO 220530Z AUTO 06004KT CAVOK 12/07 Q1005 NOSIG
Conditions at: LFBO (TOULOUSE/BLAGNAC, FR) observed 0530 UTC 22 April 2019
Temperature: 12.0°C (54°F)
Dewpoint: 7.0°C (45°F) [RH = 71%]
Pressure (altimeter): 29.68 inches Hg (1005.0 mb)
Winds: from the ENE (60 degrees) at 5 MPH (4 knots; 2.1 m/s)
Visibility: 6 or more miles (10+ km)
Ceiling: ceiling and visibility are OK
Clouds: unknown
Weather: no significant weather observed at this time

METAR text: LFBO 220500Z AUTO 07005KT CAVOK 11/07 Q1005 TEMPO 4000 -SHRA BKN015 SCT040TCU
Conditions at: LFBO (TOULOUSE/BLAGNAC, FR) observed 0500 UTC 22 April 2019
Temperature: 11.0°C (52°F)
Dewpoint: 7.0°C (45°F) [RH = 76%]
Pressure (altimeter): 29.68 inches Hg (1005.0 mb)
Winds: from the ENE (70 degrees) at 6 MPH (5 knots; 2.6 m/s)
Visibility: 6 or more miles (10+ km)
Ceiling: ceiling and visibility are OK
Clouds: unknown
Weather: no significant weather observed at this time

METAR text: LFBO 220430Z AUTO 06004KT CAVOK 11/08 Q1005 TEMPO 4000 -SHRA BKN015 SCT040TCU
Conditions at: LFBO (TOULOUSE/BLAGNAC, FR) observed 0430 UTC 22 April 2019
Temperature: 11.0°C (52°F)
Dewpoint: 8.0°C (46°F) [RH = 82%]
Pressure (altimeter): 29.68 inches Hg (1005.0 mb)
Winds: from the ENE (60 degrees) at 5 MPH (4 knots; 2.1 m/s)
Visibility: 6 or more miles (10+ km)
Ceiling: ceiling and visibility are OK
Clouds: unknown
Weather: no significant weather observed at this time

METAR text: LFBO 220400Z AUTO 06003KT 030V100 CAVOK 11/08 Q1006 NOSIG
Conditions at: LFBO (TOULOUSE/BLAGNAC, FR) observed 0400 UTC 22 April 2019
Temperature: 11.0°C (52°F)
Dewpoint: 8.0°C (46°F) [RH = 82%]
Pressure (altimeter): 29.70 inches Hg (1006.0 mb)
Winds: from the ENE (60 degrees) at 3 MPH (3 knots; 1.5 m/s)
Visibility: 6 or more miles (10+ km)
Ceiling: ceiling and visibility are OK
Clouds: unknown
Weather: no significant weather observed at this time

METAR text: LFBO 220330Z AUTO 04004KT 010V070 CAVOK 10/08 Q1006 NOSIG
Conditions at: LFBO (TOULOUSE/BLAGNAC, FR) observed 0330 UTC 22 April 2019
Temperature: 10.0°C (50°F)
Dewpoint: 8.0°C (46°F) [RH = 87%]
Pressure (altimeter): 29.70 inches Hg (1006.0 mb)
Winds: from the NE (40 degrees) at 5 MPH (4 knots; 2.1 m/s)
Visibility: 6 or more miles (10+ km)
Ceiling: ceiling and visibility are OK
Clouds: unknown
Weather: no significant weather observed at this time

METAR text: LFBO 220300Z AUTO 05005KT 010V070 CAVOK 11/08 Q1007 NOSIG
Conditions at: LFBO (TOULOUSE/BLAGNAC, FR) observed 0300 UTC 22 April 2019
Temperature: 11.0°C (52°F)
Dewpoint: 8.0°C (46°F) [RH = 82%]
Pressure (altimeter): 29.73 inches Hg (1007.0 mb)
Winds: from the NE (50 degrees) at 6 MPH (5 knots; 2.6 m/s)
Visibility: 6 or more miles (10+ km)
Ceiling: ceiling and visibility are OK
Clouds: unknown
Weather: no significant weather observed at this time

METAR text: LFBO 220230Z AUTO 07003KT 360V110 CAVOK 11/08 Q1007 NOSIG
Conditions at: LFBO (TOULOUSE/BLAGNAC, FR) observed 0230 UTC 22 April 2019
Temperature: 11.0°C (52°F)
Dewpoint: 8.0°C (46°F) [RH = 82%]
Pressure (altimeter): 29.73 inches Hg (1007.0 mb)
Winds: from the ENE (70 degrees) at 3 MPH (3 knots; 1.5 m/s)
Visibility: 6 or more miles (10+ km)
Ceiling: ceiling and visibility are OK
Clouds: unknown
Weather: no significant weather observed at this time

METAR text: LFBO 220200Z AUTO VRB02KT CAVOK 11/08 Q1007 NOSIG
Conditions at: LFBO (TOULOUSE/BLAGNAC, FR) observed 0200 UTC 22 April 2019
Temperature: 11.0°C (52°F)
Dewpoint: 8.0°C (46°F) [RH = 82%]
Pressure (altimeter): 29.73 inches Hg (1007.0 mb)
Winds: variable direction winds at 2 MPH (2 knots; 1.0 m/s)
Visibility: 6 or more miles (10+ km)
Ceiling: ceiling and visibility are OK
Clouds: unknown
Weather: no significant weather observed at this time

METAR text: LFBO 220130Z AUTO VRB02KT CAVOK 11/08 Q1008 NOSIG
Conditions at: LFBO (TOULOUSE/BLAGNAC, FR) observed 0130 UTC 22 April 2019
Temperature: 11.0°C (52°F)
Dewpoint: 8.0°C (46°F) [RH = 82%]
Pressure (altimeter): 29.76 inches Hg (1008.0 mb)
Winds: variable direction winds at 2 MPH (2 knots; 1.0 m/s)
Visibility: 6 or more miles (10+ km)
Ceiling: ceiling and visibility are OK
Clouds: unknown
Weather: no significant weather observed at this time

METAR text: LFBO 220100Z AUTO VRB02KT CAVOK 11/08 Q1008 NOSIG
Conditions at: LFBO (TOULOUSE/BLAGNAC, FR) observed 0100 UTC 22 April 2019
Temperature: 11.0°C (52°F)
Dewpoint: 8.0°C (46°F) [RH = 82%]
Pressure (altimeter): 29.76 inches Hg (1008.0 mb)
Winds: variable direction winds at 2 MPH (2 knots; 1.0 m/s)
Visibility: 6 or more miles (10+ km)
Ceiling: ceiling and visibility are OK
Clouds: unknown
Weather: no significant weather observed at this time

METAR text: LFBO 220030Z AUTO 04004KT CAVOK 11/09 Q1009 NOSIG
Conditions at: LFBO (TOULOUSE/BLAGNAC, FR) observed 0030 UTC 22 April 2019
Temperature: 11.0°C (52°F)
Dewpoint: 9.0°C (48°F) [RH = 87%]
Pressure (altimeter): 29.79 inches Hg (1009.0 mb)
Winds: from the NE (40 degrees) at 5 MPH (4 knots; 2.1 m/s)
Visibility: 6 or more miles (10+ km)
Ceiling: ceiling and visibility are OK
Clouds: unknown
Weather: no significant weather observed at this time

METAR text: LFBO 220000Z AUTO 05005KT CAVOK 12/09 Q1009 NOSIG
Conditions at: LFBO (TOULOUSE/BLAGNAC, FR) observed 0000 UTC 22 April 2019
Temperature: 12.0°C (54°F)
Dewpoint: 9.0°C (48°F) [RH = 82%]
Pressure (altimeter): 29.79 inches Hg (1009.0 mb)
Winds: from the NE (50 degrees) at 6 MPH (5 knots; 2.6 m/s)
Visibility: 6 or more miles (10+ km)
Ceiling: ceiling and visibility are OK
Clouds: unknown
Weather: no significant weather observed at this time

METAR text: LFBO 212330Z AUTO 05004KT CAVOK 12/09 Q1010 NOSIG
Conditions at: LFBO (TOULOUSE/BLAGNAC, FR) observed 2330 UTC 21 April 2019
Temperature: 12.0°C (54°F)
Dewpoint: 9.0°C (48°F) [RH = 82%]
Pressure (altimeter): 29.82 inches Hg (1010.0 mb)
Winds: from the NE (50 degrees) at 5 MPH (4 knots; 2.1 m/s)
Visibility: 6 or more miles (10+ km)
Ceiling: ceiling and visibility are OK
Clouds: unknown
Weather: no significant weather observed at this time

METAR text: LFBO 212300Z AUTO 04003KT CAVOK 12/09 Q1010 NOSIG
Conditions at: LFBO (TOULOUSE/BLAGNAC, FR) observed 2300 UTC 21 April 2019
Temperature: 12.0°C (54°F)
Dewpoint: 9.0°C (48°F) [RH = 82%]
Pressure (altimeter): 29.82 inches Hg (1010.0 mb)
Winds: from the NE (40 degrees) at 3 MPH (3 knots; 1.5 m/s)
Visibility: 6 or more miles (10+ km)
Ceiling: ceiling and visibility are OK
Clouds: unknown
Weather: no significant weather observed at this time

METAR text: LFBO 212230Z AUTO 06003KT CAVOK 12/09 Q1010 NOSIG
Conditions at: LFBO (TOULOUSE/BLAGNAC, FR) observed 2230 UTC 21 April 2019
Temperature: 12.0°C (54°F)
Dewpoint: 9.0°C (48°F) [RH = 82%]
Pressure (altimeter): 29.82 inches Hg (1010.0 mb)
Winds: from the ENE (60 degrees) at 3 MPH (3 knots; 1.5 m/s)
Visibility: 6 or more miles (10+ km)
Ceiling: ceiling and visibility are OK
Clouds: unknown
Weather: no significant weather observed at this time

METAR text: LFBO 212200Z AUTO 05004KT CAVOK 12/09 Q1011 NOSIG
Conditions at: LFBO (TOULOUSE/BLAGNAC, FR) observed 2200 UTC 21 April 2019
Temperature: 12.0°C (54°F)
Dewpoint: 9.0°C (48°F) [RH = 82%]
Pressure (altimeter): 29.85 inches Hg (1011.0 mb)
Winds: from the NE (50 degrees) at 5 MPH (4 knots; 2.1 m/s)
Visibility: 6 or more miles (10+ km)
Ceiling: ceiling and visibility are OK
Clouds: unknown
Weather: no significant weather observed at this time

METAR text: LFBO 212130Z AUTO 05004KT CAVOK 13/09 Q1011 NOSIG
Conditions at: LFBO (TOULOUSE/BLAGNAC, FR) observed 2130 UTC 21 April 2019
Temperature: 13.0°C (55°F)
Dewpoint: 9.0°C (48°F) [RH = 77%]
Pressure (altimeter): 29.85 inches Hg (1011.0 mb)
Winds: from the NE (50 degrees) at 5 MPH (4 knots; 2.1 m/s)
Visibility: 6 or more miles (10+ km)
Ceiling: ceiling and visibility are OK
Clouds: unknown
Weather: no significant weather observed at this time

METAR text: LFBO 212100Z AUTO 05004KT 020V080 CAVOK 13/09 Q1011 NOSIG
Conditions at: LFBO (TOULOUSE/BLAGNAC, FR) observed 2100 UTC 21 April 2019
Temperature: 13.0°C (55°F)
Dewpoint: 9.0°C (48°F) [RH = 77%]
Pressure (altimeter): 29.85 inches Hg (1011.0 mb)
Winds: from the NE (50 degrees) at 5 MPH (4 knots; 2.1 m/s)
Visibility: 6 or more miles (10+ km)
Ceiling: ceiling and visibility are OK
Clouds: unknown
Weather: no significant weather observed at this time

METAR text: LFBO 212030Z AUTO 05005KT CAVOK 14/09 Q1012 NOSIG
Conditions at: LFBO (TOULOUSE/BLAGNAC, FR) observed 2030 UTC 21 April 2019
Temperature: 14.0°C (57°F)
Dewpoint: 9.0°C (48°F) [RH = 72%]
Pressure (altimeter): 29.88 inches Hg (1012.0 mb)
Winds: from the NE (50 degrees) at 6 MPH (5 knots; 2.6 m/s)
Visibility: 6 or more miles (10+ km)
Ceiling: ceiling and visibility are OK
Clouds: unknown
Weather: no significant weather observed at this time

METAR text: LFBO 212000Z AUTO 06005KT 030V100 CAVOK 14/09 Q1012 NOSIG
Conditions at: LFBO (TOULOUSE/BLAGNAC, FR) observed 2000 UTC 21 April 2019
Temperature: 14.0°C (57°F)
Dewpoint: 9.0°C (48°F) [RH = 72%]
Pressure (altimeter): 29.88 inches Hg (1012.0 mb)
Winds: from the ENE (60 degrees) at 6 MPH (5 knots; 2.6 m/s)
Visibility: 6 or more miles (10+ km)
Ceiling: ceiling and visibility are OK
Clouds: unknown
Weather: no significant weather observed at this time

METAR text: LFBO 211930Z AUTO 06007KT CAVOK 14/09 Q1012 NOSIG
Conditions at: LFBO (TOULOUSE/BLAGNAC, FR) observed 1930 UTC 21 April 2019
Temperature: 14.0°C (57°F)
Dewpoint: 9.0°C (48°F) [RH = 72%]
Pressure (altimeter): 29.88 inches Hg (1012.0 mb)
Winds: from the ENE (60 degrees) at 8 MPH (7 knots; 3.6 m/s)
Visibility: 6 or more miles (10+ km)
Ceiling: ceiling and visibility are OK
Clouds: unknown
Weather: no significant weather observed at this time

METAR text: LFBO 211900Z AUTO 05006KT CAVOK 14/09 Q1012 NOSIG
Conditions at: LFBO (TOULOUSE/BLAGNAC, FR) observed 1900 UTC 21 April 2019
Temperature: 14.0°C (57°F)
Dewpoint: 9.0°C (48°F) [RH = 72%]
Pressure (altimeter): 29.88 inches Hg (1012.0 mb)
Winds: from the NE (50 degrees) at 7 MPH (6 knots; 3.1 m/s)
Visibility: 6 or more miles (10+ km)
Ceiling: ceiling and visibility are OK
Clouds: unknown
Weather: no significant weather observed at this time

METAR text: LFBO 211830Z AUTO 05007KT 9999 NSC 15/09 Q1012 NOSIG
Conditions at: LFBO (TOULOUSE/BLAGNAC, FR) observed 1830 UTC 21 April 2019
Temperature: 15.0°C (59°F)
Dewpoint: 9.0°C (48°F) [RH = 67%]
Pressure (altimeter): 29.88 inches Hg (1012.0 mb)
Winds: from the NE (50 degrees) at 8 MPH (7 knots; 3.6 m/s)
Visibility: 6 or more miles (10+ km)
Ceiling: at least 12,000 feet AGL
Clouds: sky clear below 12,000 feet AGL
Weather: no significant weather observed at this time

METAR text: LFBO 211800Z AUTO 05008KT CAVOK 15/09 Q1012 NOSIG
Conditions at: LFBO (TOULOUSE/BLAGNAC, FR) observed 1800 UTC 21 April 2019
Temperature: 15.0°C (59°F)
Dewpoint: 9.0°C (48°F) [RH = 67%]
Pressure (altimeter): 29.88 inches Hg (1012.0 mb)
Winds: from the NE (50 degrees) at 9 MPH (8 knots; 4.1 m/s)
Visibility: 6 or more miles (10+ km)
Ceiling: ceiling and visibility are OK
Clouds: unknown
Weather: no significant weather observed at this time

METAR text: LFBO 211730Z AUTO 06009KT 030V090 9999 FEW048 BKN100 BKN230 15/09 Q1012 NOSIG
Conditions at: LFBO (TOULOUSE/BLAGNAC, FR) observed 1730 UTC 21 April 2019
Temperature: 15.0°C (59°F)
Dewpoint: 9.0°C (48°F) [RH = 67%]
Pressure (altimeter): 29.88 inches Hg (1012.0 mb)
Winds: from the ENE (60 degrees) at 10 MPH (9 knots; 4.6 m/s)
Visibility: 6 or more miles (10+ km)
Ceiling: 10000 feet AGL
Clouds: few clouds at 4800 feet AGL
broken clouds at 10000 feet AGL
broken clouds at 23000 feet AGL
Weather: no significant weather observed at this time

METAR text: LFBO 211700Z AUTO 06011KT 9999 FEW008 OVC096 16/09 Q1012 NOSIG
Conditions at: LFBO (TOULOUSE/BLAGNAC, FR) observed 1700 UTC 21 April 2019
Temperature: 16.0°C (61°F)
Dewpoint: 9.0°C (48°F) [RH = 63%]
Pressure (altimeter): 29.88 inches Hg (1012.0 mb)
Winds: from the ENE (60 degrees) at 13 MPH (11 knots; 5.7 m/s)
Visibility: 6 or more miles (10+ km)
Ceiling: 9600 feet AGL
Clouds: few clouds at 800 feet AGL
overcast cloud deck at 9600 feet AGL
Weather: no significant weather observed at this time

METAR text: LFBO 211630Z AUTO 06011KT 030V100 CAVOK 16/09 Q1013 NOSIG
Conditions at: LFBO (TOULOUSE/BLAGNAC, FR) observed 1630 UTC 21 April 2019
Temperature: 16.0°C (61°F)
Dewpoint: 9.0°C (48°F) [RH = 63%]
Pressure (altimeter): 29.91 inches Hg (1013.0 mb)
Winds: from the ENE (60 degrees) at 13 MPH (11 knots; 5.7 m/s)
Visibility: 6 or more miles (10+ km)
Ceiling: ceiling and visibility are OK
Clouds: unknown
Weather: no significant weather observed at this time

METAR text: LFBO 211600Z AUTO 06010KT 030V090 CAVOK 15/09 Q1013 NOSIG
Conditions at: LFBO (TOULOUSE/BLAGNAC, FR) observed 1600 UTC 21 April 2019
Temperature: 15.0°C (59°F)
Dewpoint: 9.0°C (48°F) [RH = 67%]
Pressure (altimeter): 29.91 inches Hg (1013.0 mb)
Winds: from the ENE (60 degrees) at 12 MPH (10 knots; 5.1 m/s)
Visibility: 6 or more miles (10+ km)
Ceiling: ceiling and visibility are OK
Clouds: unknown
Weather: no significant weather observed at this time

METAR text: LFBO 211530Z AUTO 06012KT 030V090 9999 FEW048 OVC088 16/09 Q1013 NOSIG
Conditions at: LFBO (TOULOUSE/BLAGNAC, FR) observed 1530 UTC 21 April 2019
Temperature: 16.0°C (61°F)
Dewpoint: 9.0°C (48°F) [RH = 63%]
Pressure (altimeter): 29.91 inches Hg (1013.0 mb)
Winds: from the ENE (60 degrees) at 14 MPH (12 knots; 6.2 m/s)
Visibility: 6 or more miles (10+ km)
Ceiling: 8800 feet AGL
Clouds: few clouds at 4800 feet AGL
overcast cloud deck at 8800 feet AGL
Weather: no significant weather observed at this time

METAR text: LFBO 211500Z AUTO 07011KT 040V100 9999 FEW041 BKN078 OVC088 16/09 Q1013 NOSIG
Conditions at: LFBO (TOULOUSE/BLAGNAC, FR) observed 1500 UTC 21 April 2019
Temperature: 16.0°C (61°F)
Dewpoint: 9.0°C (48°F) [RH = 63%]
Pressure (altimeter): 29.91 inches Hg (1013.0 mb)
Winds: from the ENE (70 degrees) at 13 MPH (11 knots; 5.7 m/s)
Visibility: 6 or more miles (10+ km)
Ceiling: 7800 feet AGL
Clouds: few clouds at 4100 feet AGL
broken clouds at 7800 feet AGL
overcast cloud deck at 8800 feet AGL
Weather: no significant weather observed at this time

METAR text: LFBO 211430Z AUTO 08010KT 9999 FEW042 SCT049 OVC078 16/08 Q1014 NOSIG
Conditions at: LFBO (TOULOUSE/BLAGNAC, FR) observed 1430 UTC 21 April 2019
Temperature: 16.0°C (61°F)
Dewpoint: 8.0°C (46°F) [RH = 59%]
Pressure (altimeter): 29.94 inches Hg (1014.0 mb)
Winds: from the E (80 degrees) at 12 MPH (10 knots; 5.1 m/s)
Visibility: 6 or more miles (10+ km)
Ceiling: 7800 feet AGL
Clouds: few clouds at 4200 feet AGL
scattered clouds at 4900 feet AGL
overcast cloud deck at 7800 feet AGL
Weather: no significant weather observed at this time

METAR text: LFBO 211400Z AUTO 09009KT 060V120 9999 FEW039 SCT045 BKN054 16/09 Q1014 TEMPO 10015G25KT SCT020TCU BKN035
Conditions at: LFBO (TOULOUSE/BLAGNAC, FR) observed 1400 UTC 21 April 2019
Temperature: 16.0°C (61°F)
Dewpoint: 9.0°C (48°F) [RH = 63%]
Pressure (altimeter): 29.94 inches Hg (1014.0 mb)
Winds: from the E (90 degrees) at 10 MPH (9 knots; 4.6 m/s)
Visibility: 6 or more miles (10+ km)
Ceiling: 5400 feet AGL
Clouds: few clouds at 3900 feet AGL
scattered clouds at 4500 feet AGL
broken clouds at 5400 feet AGL
Weather: no significant weather observed at this time

METAR text: LFBO 211330Z AUTO 06009KT 020V100 9999 FEW049 SCT096 BKN110 17/09 Q1014 TEMPO 10015G25KT SCT020TCU BKN035
Conditions at: LFBO (TOULOUSE/BLAGNAC, FR) observed 1330 UTC 21 April 2019
Temperature: 17.0°C (63°F)
Dewpoint: 9.0°C (48°F) [RH = 59%]
Pressure (altimeter): 29.94 inches Hg (1014.0 mb)
Winds: from the ENE (60 degrees) at 10 MPH (9 knots; 4.6 m/s)
Visibility: 6 or more miles (10+ km)
Ceiling: 11000 feet AGL
Clouds: few clouds at 4900 feet AGL
scattered clouds at 9600 feet AGL
broken clouds at 11000 feet AGL
Weather: no significant weather observed at this time

METAR text: LFBO 211300Z AUTO 08008KT 050V120 CAVOK 15/10 Q1015 TEMPO 10015G25KT SCT020TCU BKN035
Conditions at: LFBO (TOULOUSE/BLAGNAC, FR) observed 1300 UTC 21 April 2019
Temperature: 15.0°C (59°F)
Dewpoint: 10.0°C (50°F) [RH = 72%]
Pressure (altimeter): 29.97 inches Hg (1015.0 mb)
Winds: from the E (80 degrees) at 9 MPH (8 knots; 4.1 m/s)
Visibility: 6 or more miles (10+ km)
Ceiling: ceiling and visibility are OK
Clouds: unknown
Weather: no significant weather observed at this time

METAR text: LFBO 211230Z AUTO 07007KT 040V120 9999 FEW008 OVC070 15/11 Q1015 TEMPO 10015G25KT SCT020TCU BKN035
Conditions at: LFBO (TOULOUSE/BLAGNAC, FR) observed 1230 UTC 21 April 2019
Temperature: 15.0°C (59°F)
Dewpoint: 11.0°C (52°F) [RH = 77%]
Pressure (altimeter): 29.97 inches Hg (1015.0 mb)
Winds: from the ENE (70 degrees) at 8 MPH (7 knots; 3.6 m/s)
Visibility: 6 or more miles (10+ km)
Ceiling: 7000 feet AGL
Clouds: few clouds at 800 feet AGL
overcast cloud deck at 7000 feet AGL
Weather: no significant weather observed at this time

METAR text: LFBO 211200Z AUTO 07009KT 030V100 9999 -RA FEW031 BKN040 OVC060 14/10 Q1015 TEMPO 10015G25KT SCT020TCU BKN035
Conditions at: LFBO (TOULOUSE/BLAGNAC, FR) observed 1200 UTC 21 April 2019
Temperature: 14.0°C (57°F)
Dewpoint: 10.0°C (50°F) [RH = 77%]
Pressure (altimeter): 29.97 inches Hg (1015.0 mb)
Winds: from the ENE (70 degrees) at 10 MPH (9 knots; 4.6 m/s)
Visibility: 6 or more miles (10+ km)
Ceiling: 4000 feet AGL
Clouds: few clouds at 3100 feet AGL
broken clouds at 4000 feet AGL
overcast cloud deck at 6000 feet AGL
Weather: -RA  (light rain)

METAR text: LFBO 211130Z AUTO 05006KT 010V070 9999 FEW036 BKN074 BKN088 15/09 Q1015 TEMPO SCT025TCU BKN035
Conditions at: LFBO (TOULOUSE/BLAGNAC, FR) observed 1130 UTC 21 April 2019
Temperature: 15.0°C (59°F)
Dewpoint: 9.0°C (48°F) [RH = 67%]
Pressure (altimeter): 29.97 inches Hg (1015.0 mb)
Winds: from the NE (50 degrees) at 7 MPH (6 knots; 3.1 m/s)
Visibility: 6 or more miles (10+ km)
Ceiling: 7400 feet AGL
Clouds: few clouds at 3600 feet AGL
broken clouds at 7400 feet AGL
broken clouds at 8800 feet AGL
Weather: no significant weather observed at this time

METAR text: LFBO 211100Z AUTO 04004KT 350V100 9999 FEW039 SCT049 BKN070 15/10 Q1016 TEMPO SCT025TCU BKN035
Conditions at: LFBO (TOULOUSE/BLAGNAC, FR) observed 1100 UTC 21 April 2019
Temperature: 15.0°C (59°F)
Dewpoint: 10.0°C (50°F) [RH = 72%]
Pressure (altimeter): 30.00 inches Hg (1016.0 mb)
Winds: from the NE (40 degrees) at 5 MPH (4 knots; 2.1 m/s)
Visibility: 6 or more miles (10+ km)
Ceiling: 7000 feet AGL
Clouds: few clouds at 3900 feet AGL
scattered clouds at 4900 feet AGL
broken clouds at 7000 feet AGL
Weather: no significant weather observed at this time

METAR text: LFBO 211030Z AUTO 04004KT 350V080 CAVOK 15/10 Q1016 TEMPO SCT025TCU BKN035
Conditions at: LFBO (TOULOUSE/BLAGNAC, FR) observed 1030 UTC 21 April 2019
Temperature: 15.0°C (59°F)
Dewpoint: 10.0°C (50°F) [RH = 72%]
Pressure (altimeter): 30.00 inches Hg (1016.0 mb)
Winds: from the NE (40 degrees) at 5 MPH (4 knots; 2.1 m/s)
Visibility: 6 or more miles (10+ km)
Ceiling: ceiling and visibility are OK
Clouds: unknown
Weather: no significant weather observed at this time

METAR text: LFBO 211000Z AUTO 02003KT 320V090 CAVOK 15/10 Q1016 TEMPO SCT025TCU BKN035
Conditions at: LFBO (TOULOUSE/BLAGNAC, FR) observed 1000 UTC 21 April 2019
Temperature: 15.0°C (59°F)
Dewpoint: 10.0°C (50°F) [RH = 72%]
Pressure (altimeter): 30.00 inches Hg (1016.0 mb)
Winds: from the NNE (20 degrees) at 3 MPH (3 knots; 1.5 m/s)
Visibility: 6 or more miles (10+ km)
Ceiling: ceiling and visibility are OK
Clouds: unknown
Weather: no significant weather observed at this time

METAR text: LFBO 210930Z AUTO 06004KT 020V080 CAVOK 14/09 Q1016 TEMPO SCT025TCU BKN035
Conditions at: LFBO (TOULOUSE/BLAGNAC, FR) observed 0930 UTC 21 April 2019
Temperature: 14.0°C (57°F)
Dewpoint: 9.0°C (48°F) [RH = 72%]
Pressure (altimeter): 30.00 inches Hg (1016.0 mb)
Winds: from the ENE (60 degrees) at 5 MPH (4 knots; 2.1 m/s)
Visibility: 6 or more miles (10+ km)
Ceiling: ceiling and visibility are OK
Clouds: unknown
Weather: no significant weather observed at this time

METAR text: LFBO 210900Z AUTO 13005KT 110V170 9999 FEW049 BKN068 OVC080 14/09 Q1017 TEMPO SCT025TCU BKN035
Conditions at: LFBO (TOULOUSE/BLAGNAC, FR) observed 0900 UTC 21 April 2019
Temperature: 14.0°C (57°F)
Dewpoint: 9.0°C (48°F) [RH = 72%]
Pressure (altimeter): 30.03 inches Hg (1017.0 mb)
Winds: from the SE (130 degrees) at 6 MPH (5 knots; 2.6 m/s)
Visibility: 6 or more miles (10+ km)
Ceiling: 6800 feet AGL
Clouds: few clouds at 4900 feet AGL
broken clouds at 6800 feet AGL
overcast cloud deck at 8000 feet AGL
Weather: no significant weather observed at this time

METAR text: LFBO 210830Z AUTO 09005KT 040V130 9999 -RA FEW045 BKN068 OVC078 13/09 Q1017 TEMPO SCT025TCU BKN035
Conditions at: LFBO (TOULOUSE/BLAGNAC, FR) observed 0830 UTC 21 April 2019
Temperature: 13.0°C (55°F)
Dewpoint: 9.0°C (48°F) [RH = 77%]
Pressure (altimeter): 30.03 inches Hg (1017.0 mb)
Winds: from the E (90 degrees) at 6 MPH (5 knots; 2.6 m/s)
Visibility: 6 or more miles (10+ km)
Ceiling: 6800 feet AGL
Clouds: few clouds at 4500 feet AGL
broken clouds at 6800 feet AGL
overcast cloud deck at 7800 feet AGL
Weather: -RA  (light rain)

METAR text: LFBO 210800Z AUTO 07007KT 030V100 9999 -RA FEW037 SCT066 BKN082 13/09 Q1017 TEMPO SCT025TCU BKN035
Conditions at: LFBO (TOULOUSE/BLAGNAC, FR) observed 0800 UTC 21 April 2019
Temperature: 13.0°C (55°F)
Dewpoint: 9.0°C (48°F) [RH = 77%]
Pressure (altimeter): 30.03 inches Hg (1017.0 mb)
Winds: from the ENE (70 degrees) at 8 MPH (7 knots; 3.6 m/s)
Visibility: 6 or more miles (10+ km)
Ceiling: 8200 feet AGL
Clouds: few clouds at 3700 feet AGL
scattered clouds at 6600 feet AGL
broken clouds at 8200 feet AGL
Weather: -RA  (light rain)

METAR text: LFBO 210730Z AUTO 08007KT 050V120 9999 -RA NSC 12/09 Q1017 TEMPO SCT025TCU BKN035
Conditions at: LFBO (TOULOUSE/BLAGNAC, FR) observed 0730 UTC 21 April 2019
Temperature: 12.0°C (54°F)
Dewpoint: 9.0°C (48°F) [RH = 82%]
Pressure (altimeter): 30.03 inches Hg (1017.0 mb)
Winds: from the E (80 degrees) at 8 MPH (7 knots; 3.6 m/s)
Visibility: 6 or more miles (10+ km)
Ceiling: at least 12,000 feet AGL
Clouds: sky clear below 12,000 feet AGL
Weather: -RA  (light rain)

METAR text: LFBO 210700Z AUTO 07006KT 030V100 9999 -RA NSC 12/09 Q1017 TEMPO SCT025TCU BKN035
Conditions at: LFBO (TOULOUSE/BLAGNAC, FR) observed 0700 UTC 21 April 2019
Temperature: 12.0°C (54°F)
Dewpoint: 9.0°C (48°F) [RH = 82%]
Pressure (altimeter): 30.03 inches Hg (1017.0 mb)
Winds: from the ENE (70 degrees) at 7 MPH (6 knots; 3.1 m/s)
Visibility: 6 or more miles (10+ km)
Ceiling: at least 12,000 feet AGL
Clouds: sky clear below 12,000 feet AGL
Weather: -RA  (light rain)

METAR text: LFBO 210630Z AUTO 06006KT 030V100 9999 -RA NSC 12/09 Q1017 TEMPO SCT025TCU BKN035
Conditions at: LFBO (TOULOUSE/BLAGNAC, FR) observed 0630 UTC 21 April 2019
Temperature: 12.0°C (54°F)
Dewpoint: 9.0°C (48°F) [RH = 82%]
Pressure (altimeter): 30.03 inches Hg (1017.0 mb)
Winds: from the ENE (60 degrees) at 7 MPH (6 knots; 3.1 m/s)
Visibility: 6 or more miles (10+ km)
Ceiling: at least 12,000 feet AGL
Clouds: sky clear below 12,000 feet AGL
Weather: -RA  (light rain)

METAR text: LFBO 210600Z AUTO 04004KT 360V070 9999 -RA NSC 12/09 Q1017 NOSIG
Conditions at: LFBO (TOULOUSE/BLAGNAC, FR) observed 0600 UTC 21 April 2019
Temperature: 12.0°C (54°F)
Dewpoint: 9.0°C (48°F) [RH = 82%]
Pressure (altimeter): 30.03 inches Hg (1017.0 mb)
Winds: from the NE (40 degrees) at 5 MPH (4 knots; 2.1 m/s)
Visibility: 6 or more miles (10+ km)
Ceiling: at least 12,000 feet AGL
Clouds: sky clear below 12,000 feet AGL
Weather: -RA  (light rain)

METAR text: LFBO 210530Z AUTO 05006KT 020V080 9999 -RA NSC 12/09 Q1017 TEMPO SCT025TCU BKN060
Conditions at: LFBO (TOULOUSE/BLAGNAC, FR) observed 0530 UTC 21 April 2019
Temperature: 12.0°C (54°F)
Dewpoint: 9.0°C (48°F) [RH = 82%]
Pressure (altimeter): 30.03 inches Hg (1017.0 mb)
Winds: from the NE (50 degrees) at 7 MPH (6 knots; 3.1 m/s)
Visibility: 6 or more miles (10+ km)
Ceiling: at least 12,000 feet AGL
Clouds: sky clear below 12,000 feet AGL
Weather: -RA  (light rain)

METAR text: LFBO 210500Z AUTO 08008KT 050V110 9999 -RA NSC 12/09 Q1018 TEMPO SCT025TCU BKN060
Conditions at: LFBO (TOULOUSE/BLAGNAC, FR) observed 0500 UTC 21 April 2019
Temperature: 12.0°C (54°F)
Dewpoint: 9.0°C (48°F) [RH = 82%]
Pressure (altimeter): 30.06 inches Hg (1018.0 mb)
Winds: from the E (80 degrees) at 9 MPH (8 knots; 4.1 m/s)
Visibility: 6 or more miles (10+ km)
Ceiling: at least 12,000 feet AGL
Clouds: sky clear below 12,000 feet AGL
Weather: -RA  (light rain)

METAR text: LFBO 210430Z AUTO 09007KT 9999 -RA NSC 12/09 Q1018 TEMPO SCT025TCU BKN060
Conditions at: LFBO (TOULOUSE/BLAGNAC, FR) observed 0430 UTC 21 April 2019
Temperature: 12.0°C (54°F)
Dewpoint: 9.0°C (48°F) [RH = 82%]
Pressure (altimeter): 30.06 inches Hg (1018.0 mb)
Winds: from the E (90 degrees) at 8 MPH (7 knots; 3.6 m/s)
Visibility: 6 or more miles (10+ km)
Ceiling: at least 12,000 feet AGL
Clouds: sky clear below 12,000 feet AGL
Weather: -RA  (light rain)

METAR text: LFBO 210400Z AUTO 11004KT 070V160 9999 -RA NSC 12/09 Q1018 TEMPO SCT025TCU BKN060
Conditions at: LFBO (TOULOUSE/BLAGNAC, FR) observed 0400 UTC 21 April 2019
Temperature: 12.0°C (54°F)
Dewpoint: 9.0°C (48°F) [RH = 82%]
Pressure (altimeter): 30.06 inches Hg (1018.0 mb)
Winds: from the ESE (110 degrees) at 5 MPH (4 knots; 2.1 m/s)
Visibility: 6 or more miles (10+ km)
Ceiling: at least 12,000 feet AGL
Clouds: sky clear below 12,000 feet AGL
Weather: -RA  (light rain)

METAR text: LFBO 210330Z AUTO 12004KT 080V150 9999 ///TCU 11/09 Q1018 NOSIG
Conditions at: LFBO (TOULOUSE/BLAGNAC, FR) observed 0330 UTC 21 April 2019
Temperature: 11.0°C (52°F)
Dewpoint: 9.0°C (48°F) [RH = 87%]
Pressure (altimeter): 30.06 inches Hg (1018.0 mb)
Winds: from the ESE (120 degrees) at 5 MPH (4 knots; 2.1 m/s)
Visibility: 6 or more miles (10+ km)
Ceiling: unknown
Clouds: missing
Weather: no significant weather observed at this time

METAR text: LFBO 210300Z AUTO 07005KT 040V110 CAVOK 12/09 Q1019 TEMPO SCT025TCU BKN060
Conditions at: LFBO (TOULOUSE/BLAGNAC, FR) observed 0300 UTC 21 April 2019
Temperature: 12.0°C (54°F)
Dewpoint: 9.0°C (48°F) [RH = 82%]
Pressure (altimeter): 30.09 inches Hg (1019.0 mb)
Winds: from the ENE (70 degrees) at 6 MPH (5 knots; 2.6 m/s)
Visibility: 6 or more miles (10+ km)
Ceiling: ceiling and visibility are OK
Clouds: unknown
Weather: no significant weather observed at this time

Forecast for: LFBO (TOULOUSE/BLAGNAC, FR)
Text: TAF LFBO 221100Z 2212/2318 10016G26KT CAVOK
Forecast period: 1200 UTC 22 April 2019 to 1800 UTC 23 April 2019
Forecast type: FROM: standard forecast or significant change
Winds: from the E (100 degrees) at 18 MPH (16 knots; 8.2 m/s)
gusting to 30 MPH (26 knots; 13.4 m/s)
Visibility: 6 or more miles 10+ km)
Ceiling: unknown
Clouds: missing
Weather: NSW  (no significant weather)
Text: PROB30
Forecast period: 1800 to 2200 UTC 22 April 2019
Forecast type: TEMPORARY: The following changes expected for less than half the time period
Winds: from the SE (130 degrees) at 25 MPH (22 knots; 11.3 m/s)
gusting to 41 MPH (36 knots; 18.5 m/s)
Visibility: missing
Ceiling: at least 12,000 feet AGL
Clouds: scattered clouds at 5000 feet AGL
few clouds at 7000 feet AGL
Weather: no significant weather forecast for this period
Text: TEMPO 2218/2222 13022G36KT SCT050 FEW070CB
Forecast period: 0200 to 0800 UTC 23 April 2019
Forecast type: TEMPORARY: The following changes expected for less than half the time period
Winds: from the SE (140 degrees) at 14 MPH (12 knots; 6.2 m/s)
Visibility: missing
Ceiling: 1300 feet AGL
Clouds: broken clouds at 1300 feet AGL
Weather: no significant weather forecast for this period